sensor_id;sensor_type;location;lat;lon;timestamp;temperature;humidity
19017;DHT22;9641;51.494;6.670;2023-08-12T00:01:43;21.80;99.90
19017;DHT22;9641;51.494;6.670;2023-08-12T00:04:10;21.90;99.90
19017;DHT22;9641;51.494;6.670;2023-08-12T00:06:40;21.90;99.90
19017;DHT22;9641;51.494;6.670;2023-08-12T00:09:08;21.90;99.90
19017;DHT22;9641;51.494;6.670;2023-08-12T00:11:37;21.90;99.90
19017;DHT22;9641;51.494;6.670;2023-08-12T00:14:04;21.90;99.90
19017;DHT22;9641;51.494;6.670;2023-08-12T00:16:31;21.90;99.90
19017;DHT22;9641;51.494;6.670;2023-08-12T00:18:58;21.90;99.90
19017;DHT22;9641;51.494;6.670;2023-08-12T00:21:26;21.90;99.90
19017;DHT22;9641;51.494;6.670;2023-08-12T00:23:53;21.80;99.90
19017;DHT22;9641;51.494;6.670;2023-08-12T00:26:19;21.80;99.90
19017;DHT22;9641;51.494;6.670;2023-08-12T00:28:48;21.80;99.90
19017;DHT22;9641;51.494;6.670;2023-08-12T00:31:15;21.80;99.90
19017;DHT22;9641;51.494;6.670;2023-08-12T00:33:42;21.70;99.90
19017;DHT22;9641;51.494;6.670;2023-08-12T00:36:09;21.70;99.90
19017;DHT22;9641;51.494;6.670;2023-08-12T00:38:36;21.70;99.90
19017;DHT22;9641;51.494;6.670;2023-08-12T00:41:05;21.80;99.90
19017;DHT22;9641;51.494;6.670;2023-08-12T00:43:32;21.80;99.90
19017;DHT22;9641;51.494;6.670;2023-08-12T00:46:01;21.70;99.90
19017;DHT22;9641;51.494;6.670;2023-08-12T00:48:28;21.70;99.90
19017;DHT22;9641;51.494;6.670;2023-08-12T00:50:55;21.80;99.90
19017;DHT22;9641;51.494;6.670;2023-08-12T00:53:21;21.70;99.90
19017;DHT22;9641;51.494;6.670;2023-08-12T00:55:49;21.70;99.90
19017;DHT22;9641;51.494;6.670;2023-08-12T00:58:16;21.70;99.90
19017;DHT22;9641;51.494;6.670;2023-08-12T01:00:43;21.70;99.90
19017;DHT22;9641;51.494;6.670;2023-08-12T01:03:11;21.70;99.90
19017;DHT22;9641;51.494;6.670;2023-08-12T01:05:38;21.70;99.90
19017;DHT22;9641;51.494;6.670;2023-08-12T01:08:05;21.70;99.90
19017;DHT22;9641;51.494;6.670;2023-08-12T01:10:35;21.80;99.90
19017;DHT22;9641;51.494;6.670;2023-08-12T01:13:11;21.70;99.90
19017;DHT22;9641;51.494;6.670;2023-08-12T01:15:40;21.70;99.90
19017;DHT22;9641;51.494;6.670;2023-08-12T01:18:11;21.70;99.90
19017;DHT22;9641;51.494;6.670;2023-08-12T01:20:39;21.70;99.90
19017;DHT22;9641;51.494;6.670;2023-08-12T01:23:10;21.70;99.90
19017;DHT22;9641;51.494;6.670;2023-08-12T01:25:37;21.70;99.90
19017;DHT22;9641;51.494;6.670;2023-08-12T01:28:05;21.60;99.90
19017;DHT22;9641;51.494;6.670;2023-08-12T01:30:32;21.70;99.90
19017;DHT22;9641;51.494;6.670;2023-08-12T01:33:05;21.60;99.90
19017;DHT22;9641;51.494;6.670;2023-08-12T01:35:38;21.60;99.90
19017;DHT22;9641;51.494;6.670;2023-08-12T01:38:10;21.60;99.90
19017;DHT22;9641;51.494;6.670;2023-08-12T01:40:39;21.60;99.90
19017;DHT22;9641;51.494;6.670;2023-08-12T01:43:07;21.60;99.90
19017;DHT22;9641;51.494;6.670;2023-08-12T01:45:35;21.60;99.90
19017;DHT22;9641;51.494;6.670;2023-08-12T01:48:03;21.60;99.90
19017;DHT22;9641;51.494;6.670;2023-08-12T01:50:30;21.60;99.90
19017;DHT22;9641;51.494;6.670;2023-08-12T01:52:57;21.60;99.90
19017;DHT22;9641;51.494;6.670;2023-08-12T01:57:54;21.50;99.90
19017;DHT22;9641;51.494;6.670;2023-08-12T02:00:22;21.50;99.90
19017;DHT22;9641;51.494;6.670;2023-08-12T02:02:49;21.50;99.90
19017;DHT22;9641;51.494;6.670;2023-08-12T02:05:16;21.50;99.90
19017;DHT22;9641;51.494;6.670;2023-08-12T02:07:43;21.40;99.90
19017;DHT22;9641;51.494;6.670;2023-08-12T02:10:10;21.50;99.90
19017;DHT22;9641;51.494;6.670;2023-08-12T02:12:40;21.40;99.90
19017;DHT22;9641;51.494;6.670;2023-08-12T02:15:09;21.40;99.90
19017;DHT22;9641;51.494;6.670;2023-08-12T02:17:36;21.40;99.90
19017;DHT22;9641;51.494;6.670;2023-08-12T02:20:05;21.40;99.90
19017;DHT22;9641;51.494;6.670;2023-08-12T02:22:33;21.40;99.90
19017;DHT22;9641;51.494;6.670;2023-08-12T02:25:01;21.40;99.90
19017;DHT22;9641;51.494;6.670;2023-08-12T02:27:28;21.40;99.90
19017;DHT22;9641;51.494;6.670;2023-08-12T02:29:57;21.40;99.90
19017;DHT22;9641;51.494;6.670;2023-08-12T02:32:28;21.40;99.90
19017;DHT22;9641;51.494;6.670;2023-08-12T02:34:55;21.50;99.90
19017;DHT22;9641;51.494;6.670;2023-08-12T02:37:22;21.40;99.90
19017;DHT22;9641;51.494;6.670;2023-08-12T02:39:49;21.50;99.90
19017;DHT22;9641;51.494;6.670;2023-08-12T02:42:17;21.50;99.90
19017;DHT22;9641;51.494;6.670;2023-08-12T02:44:45;21.50;99.90
19017;DHT22;9641;51.494;6.670;2023-08-12T02:47:13;21.50;99.90
19017;DHT22;9641;51.494;6.670;2023-08-12T02:49:43;21.50;99.90
19017;DHT22;9641;51.494;6.670;2023-08-12T02:52:11;21.50;99.90
19017;DHT22;9641;51.494;6.670;2023-08-12T02:54:41;21.50;99.90
19017;DHT22;9641;51.494;6.670;2023-08-12T02:57:09;21.50;99.90
19017;DHT22;9641;51.494;6.670;2023-08-12T02:59:36;21.40;99.90
19017;DHT22;9641;51.494;6.670;2023-08-12T03:02:03;21.40;99.90
19017;DHT22;9641;51.494;6.670;2023-08-12T03:04:31;21.40;99.90
19017;DHT22;9641;51.494;6.670;2023-08-12T03:06:59;21.40;99.90
19017;DHT22;9641;51.494;6.670;2023-08-12T03:09:27;21.40;99.90
19017;DHT22;9641;51.494;6.670;2023-08-12T03:11:54;21.40;99.90
19017;DHT22;9641;51.494;6.670;2023-08-12T03:14:22;21.40;99.90
19017;DHT22;9641;51.494;6.670;2023-08-12T03:16:50;21.40;99.90
19017;DHT22;9641;51.494;6.670;2023-08-12T03:19:17;21.40;99.90
19017;DHT22;9641;51.494;6.670;2023-08-12T03:21:44;21.40;99.90
19017;DHT22;9641;51.494;6.670;2023-08-12T03:24:13;21.40;99.90
19017;DHT22;9641;51.494;6.670;2023-08-12T03:26:40;21.40;99.90
19017;DHT22;9641;51.494;6.670;2023-08-12T03:29:07;21.40;99.90
19017;DHT22;9641;51.494;6.670;2023-08-12T03:31:38;21.40;99.90
19017;DHT22;9641;51.494;6.670;2023-08-12T03:34:05;21.40;99.90
19017;DHT22;9641;51.494;6.670;2023-08-12T03:36:32;21.40;99.90
19017;DHT22;9641;51.494;6.670;2023-08-12T03:38:59;21.40;99.90
19017;DHT22;9641;51.494;6.670;2023-08-12T03:41:30;21.40;99.90
19017;DHT22;9641;51.494;6.670;2023-08-12T03:44:00;21.40;99.90
19017;DHT22;9641;51.494;6.670;2023-08-12T03:46:27;21.40;99.90
19017;DHT22;9641;51.494;6.670;2023-08-12T03:48:55;21.40;99.90
19017;DHT22;9641;51.494;6.670;2023-08-12T03:51:22;21.40;99.90
19017;DHT22;9641;51.494;6.670;2023-08-12T03:53:49;21.40;99.90
19017;DHT22;9641;51.494;6.670;2023-08-12T03:56:16;21.40;99.90
19017;DHT22;9641;51.494;6.670;2023-08-12T03:58:44;21.40;99.90
19017;DHT22;9641;51.494;6.670;2023-08-12T04:01:11;21.40;99.90
19017;DHT22;9641;51.494;6.670;2023-08-12T04:03:38;21.40;99.90
19017;DHT22;9641;51.494;6.670;2023-08-12T04:06:06;21.30;99.90
19017;DHT22;9641;51.494;6.670;2023-08-12T04:08:33;21.30;99.90
19017;DHT22;9641;51.494;6.670;2023-08-12T04:11:00;21.30;99.90
19017;DHT22;9641;51.494;6.670;2023-08-12T04:13:27;21.20;99.90
19017;DHT22;9641;51.494;6.670;2023-08-12T04:15:55;21.30;99.90
19017;DHT22;9641;51.494;6.670;2023-08-12T04:18:25;21.30;99.90
19017;DHT22;9641;51.494;6.670;2023-08-12T04:20:53;21.30;99.90
19017;DHT22;9641;51.494;6.670;2023-08-12T04:23:20;21.20;99.90
19017;DHT22;9641;51.494;6.670;2023-08-12T04:25:48;21.20;99.90
19017;DHT22;9641;51.494;6.670;2023-08-12T04:28:18;21.20;99.90
19017;DHT22;9641;51.494;6.670;2023-08-12T04:30:49;21.30;99.90
19017;DHT22;9641;51.494;6.670;2023-08-12T04:33:20;21.30;99.90
19017;DHT22;9641;51.494;6.670;2023-08-12T04:35:48;21.30;99.90
19017;DHT22;9641;51.494;6.670;2023-08-12T04:38:17;21.20;99.90
19017;DHT22;9641;51.494;6.670;2023-08-12T04:40:45;21.20;99.90
19017;DHT22;9641;51.494;6.670;2023-08-12T04:43:13;21.30;99.90
19017;DHT22;9641;51.494;6.670;2023-08-12T04:45:45;21.30;99.90
19017;DHT22;9641;51.494;6.670;2023-08-12T04:48:13;21.30;99.90
19017;DHT22;9641;51.494;6.670;2023-08-12T04:50:43;21.30;99.90
19017;DHT22;9641;51.494;6.670;2023-08-12T04:53:10;21.30;99.90
19017;DHT22;9641;51.494;6.670;2023-08-12T04:55:41;21.30;99.90
19017;DHT22;9641;51.494;6.670;2023-08-12T04:58:09;21.30;99.90
19017;DHT22;9641;51.494;6.670;2023-08-12T05:00:37;21.30;99.90
19017;DHT22;9641;51.494;6.670;2023-08-12T05:03:04;21.40;99.90
19017;DHT22;9641;51.494;6.670;2023-08-12T05:05:35;21.40;99.90
19017;DHT22;9641;51.494;6.670;2023-08-12T05:08:04;21.40;99.90
19017;DHT22;9641;51.494;6.670;2023-08-12T05:10:33;21.40;99.90
19017;DHT22;9641;51.494;6.670;2023-08-12T05:13:01;21.40;99.90
19017;DHT22;9641;51.494;6.670;2023-08-12T05:15:28;21.40;99.90
19017;DHT22;9641;51.494;6.670;2023-08-12T05:17:57;21.40;99.90
19017;DHT22;9641;51.494;6.670;2023-08-12T05:20:24;21.40;99.90
19017;DHT22;9641;51.494;6.670;2023-08-12T05:22:52;21.40;99.90
19017;DHT22;9641;51.494;6.670;2023-08-12T05:25:20;21.40;99.90
19017;DHT22;9641;51.494;6.670;2023-08-12T05:27:49;21.40;99.90
19017;DHT22;9641;51.494;6.670;2023-08-12T05:30:16;21.40;99.90
19017;DHT22;9641;51.494;6.670;2023-08-12T05:32:43;21.40;99.90
19017;DHT22;9641;51.494;6.670;2023-08-12T05:35:10;21.40;99.90
19017;DHT22;9641;51.494;6.670;2023-08-12T05:37:40;21.40;99.90
19017;DHT22;9641;51.494;6.670;2023-08-12T05:40:09;21.40;99.90
19017;DHT22;9641;51.494;6.670;2023-08-12T05:42:39;21.40;99.90
19017;DHT22;9641;51.494;6.670;2023-08-12T05:45:07;21.40;99.90
19017;DHT22;9641;51.494;6.670;2023-08-12T05:47:34;21.40;99.90
19017;DHT22;9641;51.494;6.670;2023-08-12T05:50:01;21.40;99.90
19017;DHT22;9641;51.494;6.670;2023-08-12T05:52:28;21.40;99.90
19017;DHT22;9641;51.494;6.670;2023-08-12T05:54:55;21.40;99.90
19017;DHT22;9641;51.494;6.670;2023-08-12T05:57:23;21.40;99.90
19017;DHT22;9641;51.494;6.670;2023-08-12T05:59:51;21.40;99.90
19017;DHT22;9641;51.494;6.670;2023-08-12T06:02:18;21.40;99.90
19017;DHT22;9641;51.494;6.670;2023-08-12T06:04:45;21.50;99.90
19017;DHT22;9641;51.494;6.670;2023-08-12T06:07:13;21.50;99.90
19017;DHT22;9641;51.494;6.670;2023-08-12T06:09:40;21.40;99.90
19017;DHT22;9641;51.494;6.670;2023-08-12T06:12:07;21.40;99.90
19017;DHT22;9641;51.494;6.670;2023-08-12T06:14:37;21.40;99.90
19017;DHT22;9641;51.494;6.670;2023-08-12T06:17:08;21.40;99.90
19017;DHT22;9641;51.494;6.670;2023-08-12T06:19:35;21.30;99.90
19017;DHT22;9641;51.494;6.670;2023-08-12T06:22:02;21.30;99.90
19017;DHT22;9641;51.494;6.670;2023-08-12T06:24:30;21.30;99.90
19017;DHT22;9641;51.494;6.670;2023-08-12T06:26:57;21.30;99.90
19017;DHT22;9641;51.494;6.670;2023-08-12T06:29:25;21.30;99.90
19017;DHT22;9641;51.494;6.670;2023-08-12T06:31:52;21.20;99.90
19017;DHT22;9641;51.494;6.670;2023-08-12T06:34:24;21.20;99.90
19017;DHT22;9641;51.494;6.670;2023-08-12T06:36:52;21.20;99.90
19017;DHT22;9641;51.494;6.670;2023-08-12T06:39:19;21.20;99.90
19017;DHT22;9641;51.494;6.670;2023-08-12T06:41:46;21.20;99.90
19017;DHT22;9641;51.494;6.670;2023-08-12T06:44:13;21.30;99.90
19017;DHT22;9641;51.494;6.670;2023-08-12T06:46:41;21.20;99.90
19017;DHT22;9641;51.494;6.670;2023-08-12T06:49:08;21.30;99.90
19017;DHT22;9641;51.494;6.670;2023-08-12T06:51:39;21.30;99.90
19017;DHT22;9641;51.494;6.670;2023-08-12T06:54:07;21.30;99.90
19017;DHT22;9641;51.494;6.670;2023-08-12T06:56:34;21.30;99.90
19017;DHT22;9641;51.494;6.670;2023-08-12T06:59:01;21.30;99.90
19017;DHT22;9641;51.494;6.670;2023-08-12T07:01:28;21.30;99.90
19017;DHT22;9641;51.494;6.670;2023-08-12T07:03:55;21.30;99.90
19017;DHT22;9641;51.494;6.670;2023-08-12T07:06:23;21.30;99.90
19017;DHT22;9641;51.494;6.670;2023-08-12T07:08:51;21.30;99.90
19017;DHT22;9641;51.494;6.670;2023-08-12T07:11:18;21.30;99.90
19017;DHT22;9641;51.494;6.670;2023-08-12T07:13:45;21.20;99.90
19017;DHT22;9641;51.494;6.670;2023-08-12T07:16:12;21.20;99.90
19017;DHT22;9641;51.494;6.670;2023-08-12T07:18:39;21.20;99.90
19017;DHT22;9641;51.494;6.670;2023-08-12T07:21:06;21.20;99.90
19017;DHT22;9641;51.494;6.670;2023-08-12T07:23:33;21.20;99.90
19017;DHT22;9641;51.494;6.670;2023-08-12T07:26:01;21.20;99.90
19017;DHT22;9641;51.494;6.670;2023-08-12T07:28:28;21.20;99.90
19017;DHT22;9641;51.494;6.670;2023-08-12T07:30:56;21.30;99.90
19017;DHT22;9641;51.494;6.670;2023-08-12T07:33:22;21.30;99.90
19017;DHT22;9641;51.494;6.670;2023-08-12T07:35:50;21.40;99.90
19017;DHT22;9641;51.494;6.670;2023-08-12T07:38:17;21.40;99.90
19017;DHT22;9641;51.494;6.670;2023-08-12T07:40:44;21.40;99.90
19017;DHT22;9641;51.494;6.670;2023-08-12T07:43:12;21.40;99.90
19017;DHT22;9641;51.494;6.670;2023-08-12T07:45:39;21.40;99.90
19017;DHT22;9641;51.494;6.670;2023-08-12T07:48:06;21.40;99.90
19017;DHT22;9641;51.494;6.670;2023-08-12T07:50:34;21.40;99.90
19017;DHT22;9641;51.494;6.670;2023-08-12T07:53:01;21.50;99.90
19017;DHT22;9641;51.494;6.670;2023-08-12T07:55:28;21.50;99.90
19017;DHT22;9641;51.494;6.670;2023-08-12T07:57:56;21.50;99.90
19017;DHT22;9641;51.494;6.670;2023-08-12T08:00:24;21.50;99.90
19017;DHT22;9641;51.494;6.670;2023-08-12T08:02:51;21.60;99.90
19017;DHT22;9641;51.494;6.670;2023-08-12T08:05:18;21.60;99.90
19017;DHT22;9641;51.494;6.670;2023-08-12T08:07:45;21.60;99.90
19017;DHT22;9641;51.494;6.670;2023-08-12T08:10:13;21.70;99.90
19017;DHT22;9641;51.494;6.670;2023-08-12T08:12:40;21.70;99.90
19017;DHT22;9641;51.494;6.670;2023-08-12T08:15:08;21.60;99.90
19017;DHT22;9641;51.494;6.670;2023-08-12T08:17:36;21.60;99.90
19017;DHT22;9641;51.494;6.670;2023-08-12T08:20:05;21.60;99.90
19017;DHT22;9641;51.494;6.670;2023-08-12T08:22:32;21.50;99.90
19017;DHT22;9641;51.494;6.670;2023-08-12T08:24:59;21.50;99.90
19017;DHT22;9641;51.494;6.670;2023-08-12T08:27:26;21.50;99.90
19017;DHT22;9641;51.494;6.670;2023-08-12T08:29:53;21.50;99.90
19017;DHT22;9641;51.494;6.670;2023-08-12T08:32:20;21.50;99.90
19017;DHT22;9641;51.494;6.670;2023-08-12T08:34:53;21.50;99.90
19017;DHT22;9641;51.494;6.670;2023-08-12T08:37:20;21.50;99.90
19017;DHT22;9641;51.494;6.670;2023-08-12T08:39:47;21.50;99.90
19017;DHT22;9641;51.494;6.670;2023-08-12T08:42:15;21.50;99.90
19017;DHT22;9641;51.494;6.670;2023-08-12T08:44:45;21.50;99.90
19017;DHT22;9641;51.494;6.670;2023-08-12T08:47:17;21.60;99.90
19017;DHT22;9641;51.494;6.670;2023-08-12T08:49:46;21.70;99.90
19017;DHT22;9641;51.494;6.670;2023-08-12T08:52:15;21.80;99.90
19017;DHT22;9641;51.494;6.670;2023-08-12T08:54:43;21.80;99.90
19017;DHT22;9641;51.494;6.670;2023-08-12T08:57:10;21.90;99.90
19017;DHT22;9641;51.494;6.670;2023-08-12T08:59:38;21.90;99.90
19017;DHT22;9641;51.494;6.670;2023-08-12T09:02:05;21.90;99.90
19017;DHT22;9641;51.494;6.670;2023-08-12T09:04:36;21.80;99.90
19017;DHT22;9641;51.494;6.670;2023-08-12T09:07:03;21.80;99.90
19017;DHT22;9641;51.494;6.670;2023-08-12T09:09:33;21.70;99.90
19017;DHT22;9641;51.494;6.670;2023-08-12T09:12:01;21.70;99.90
19017;DHT22;9641;51.494;6.670;2023-08-12T09:14:29;21.70;99.90
19017;DHT22;9641;51.494;6.670;2023-08-12T09:16:57;21.60;99.90
19017;DHT22;9641;51.494;6.670;2023-08-12T09:19:24;21.60;99.90
19017;DHT22;9641;51.494;6.670;2023-08-12T09:21:53;21.60;99.90
19017;DHT22;9641;51.494;6.670;2023-08-12T09:24:26;21.60;99.90
19017;DHT22;9641;51.494;6.670;2023-08-12T09:26:56;21.50;99.90
19017;DHT22;9641;51.494;6.670;2023-08-12T09:29:24;21.50;99.90
19017;DHT22;9641;51.494;6.670;2023-08-12T09:32:05;21.50;99.90
19017;DHT22;9641;51.494;6.670;2023-08-12T09:34:33;21.40;99.90
19017;DHT22;9641;51.494;6.670;2023-08-12T09:37:01;21.30;99.90
19017;DHT22;9641;51.494;6.670;2023-08-12T09:39:36;21.30;99.90
19017;DHT22;9641;51.494;6.670;2023-08-12T09:42:05;21.30;99.90
19017;DHT22;9641;51.494;6.670;2023-08-12T09:44:34;21.30;99.90
19017;DHT22;9641;51.494;6.670;2023-08-12T09:47:02;21.30;99.90
19017;DHT22;9641;51.494;6.670;2023-08-12T09:49:29;21.40;99.90
19017;DHT22;9641;51.494;6.670;2023-08-12T09:51:57;21.40;99.90
19017;DHT22;9641;51.494;6.670;2023-08-12T09:54:27;21.40;99.90
19017;DHT22;9641;51.494;6.670;2023-08-12T09:56:58;21.50;99.90
19017;DHT22;9641;51.494;6.670;2023-08-12T09:59:30;21.50;99.90
19017;DHT22;9641;51.494;6.670;2023-08-12T10:01:59;21.60;99.90
19017;DHT22;9641;51.494;6.670;2023-08-12T10:04:35;21.60;99.90
19017;DHT22;9641;51.494;6.670;2023-08-12T10:07:08;21.60;99.90
19017;DHT22;9641;51.494;6.670;2023-08-12T10:09:43;21.70;99.90
19017;DHT22;9641;51.494;6.670;2023-08-12T10:12:12;21.80;99.90
19017;DHT22;9641;51.494;6.670;2023-08-12T10:14:41;21.80;99.90
19017;DHT22;9641;51.494;6.670;2023-08-12T10:17:09;21.80;99.90
19017;DHT22;9641;51.494;6.670;2023-08-12T10:19:47;21.80;99.90
19017;DHT22;9641;51.494;6.670;2023-08-12T10:22:16;21.90;99.90
19017;DHT22;9641;51.494;6.670;2023-08-12T10:24:45;22.00;99.90
19017;DHT22;9641;51.494;6.670;2023-08-12T10:27:14;22.10;99.90
19017;DHT22;9641;51.494;6.670;2023-08-12T10:29:44;22.20;99.90
19017;DHT22;9641;51.494;6.670;2023-08-12T10:32:11;22.20;99.90
19017;DHT22;9641;51.494;6.670;2023-08-12T10:34:40;22.30;99.90
19017;DHT22;9641;51.494;6.670;2023-08-12T10:37:10;22.40;99.90
19017;DHT22;9641;51.494;6.670;2023-08-12T10:39:41;22.40;99.90
19017;DHT22;9641;51.494;6.670;2023-08-12T10:42:08;22.40;99.90
19017;DHT22;9641;51.494;6.670;2023-08-12T10:44:39;22.50;99.90
19017;DHT22;9641;51.494;6.670;2023-08-12T10:47:10;22.50;99.90
19017;DHT22;9641;51.494;6.670;2023-08-12T10:49:39;22.50;99.90
19017;DHT22;9641;51.494;6.670;2023-08-12T10:52:26;22.50;99.90
19017;DHT22;9641;51.494;6.670;2023-08-12T10:54:53;22.60;99.90
19017;DHT22;9641;51.494;6.670;2023-08-12T10:57:34;22.60;99.90
19017;DHT22;9641;51.494;6.670;2023-08-12T11:00:05;22.70;99.90
19017;DHT22;9641;51.494;6.670;2023-08-12T11:02:34;22.70;99.90
19017;DHT22;9641;51.494;6.670;2023-08-12T11:05:03;22.70;99.90
19017;DHT22;9641;51.494;6.670;2023-08-12T11:07:38;22.60;99.90
19017;DHT22;9641;51.494;6.670;2023-08-12T11:10:10;22.50;99.90
19017;DHT22;9641;51.494;6.670;2023-08-12T11:12:39;22.40;99.90
19017;DHT22;9641;51.494;6.670;2023-08-12T11:15:07;22.30;99.90
19017;DHT22;9641;51.494;6.670;2023-08-12T11:17:37;22.10;99.90
19017;DHT22;9641;51.494;6.670;2023-08-12T11:20:08;22.00;99.90
19017;DHT22;9641;51.494;6.670;2023-08-12T11:22:36;21.80;99.90
19017;DHT22;9641;51.494;6.670;2023-08-12T11:25:05;21.80;99.90
19017;DHT22;9641;51.494;6.670;2023-08-12T11:27:42;21.80;99.90
19017;DHT22;9641;51.494;6.670;2023-08-12T11:30:10;21.80;99.90
19017;DHT22;9641;51.494;6.670;2023-08-12T11:32:40;21.70;99.90
19017;DHT22;9641;51.494;6.670;2023-08-12T11:35:09;21.70;99.90
19017;DHT22;9641;51.494;6.670;2023-08-12T11:37:37;21.70;99.90
19017;DHT22;9641;51.494;6.670;2023-08-12T11:40:05;21.80;99.90
19017;DHT22;9641;51.494;6.670;2023-08-12T11:42:34;21.80;99.90
19017;DHT22;9641;51.494;6.670;2023-08-12T11:45:01;21.80;99.90
19017;DHT22;9641;51.494;6.670;2023-08-12T11:47:29;21.80;99.90
19017;DHT22;9641;51.494;6.670;2023-08-12T11:49:57;21.90;99.90
19017;DHT22;9641;51.494;6.670;2023-08-12T11:52:25;22.00;99.90
19017;DHT22;9641;51.494;6.670;2023-08-12T11:54:52;22.10;99.90
19017;DHT22;9641;51.494;6.670;2023-08-12T11:57:22;22.10;99.90
19017;DHT22;9641;51.494;6.670;2023-08-12T11:59:49;22.40;99.90
19017;DHT22;9641;51.494;6.670;2023-08-12T12:02:17;22.70;99.90
19017;DHT22;9641;51.494;6.670;2023-08-12T12:04:45;22.90;99.90
19017;DHT22;9641;51.494;6.670;2023-08-12T12:07:20;22.80;99.90
19017;DHT22;9641;51.494;6.670;2023-08-12T12:09:50;22.80;99.90
19017;DHT22;9641;51.494;6.670;2023-08-12T12:12:21;22.80;99.90
19017;DHT22;9641;51.494;6.670;2023-08-12T12:14:48;22.90;99.90
19017;DHT22;9641;51.494;6.670;2023-08-12T12:17:15;22.90;99.90
19017;DHT22;9641;51.494;6.670;2023-08-12T12:19:43;23.10;99.90
19017;DHT22;9641;51.494;6.670;2023-08-12T12:22:10;23.30;99.90
19017;DHT22;9641;51.494;6.670;2023-08-12T12:24:46;23.60;99.90
19017;DHT22;9641;51.494;6.670;2023-08-12T12:27:13;23.80;99.90
19017;DHT22;9641;51.494;6.670;2023-08-12T12:29:41;23.80;99.90
19017;DHT22;9641;51.494;6.670;2023-08-12T12:32:08;23.60;99.90
19017;DHT22;9641;51.494;6.670;2023-08-12T12:34:35;23.60;99.90
19017;DHT22;9641;51.494;6.670;2023-08-12T12:37:02;23.40;99.90
19017;DHT22;9641;51.494;6.670;2023-08-12T12:39:29;23.20;99.90
19017;DHT22;9641;51.494;6.670;2023-08-12T12:41:58;23.00;99.90
19017;DHT22;9641;51.494;6.670;2023-08-12T12:44:26;22.80;99.90
19017;DHT22;9641;51.494;6.670;2023-08-12T12:46:53;22.70;99.90
19017;DHT22;9641;51.494;6.670;2023-08-12T12:49:20;22.60;99.90
19017;DHT22;9641;51.494;6.670;2023-08-12T12:51:47;22.60;99.90
19017;DHT22;9641;51.494;6.670;2023-08-12T12:54:14;22.70;99.90
19017;DHT22;9641;51.494;6.670;2023-08-12T12:56:41;22.80;99.90
19017;DHT22;9641;51.494;6.670;2023-08-12T12:59:10;22.90;99.90
19017;DHT22;9641;51.494;6.670;2023-08-12T13:01:37;22.90;99.90
19017;DHT22;9641;51.494;6.670;2023-08-12T13:04:04;22.90;99.90
19017;DHT22;9641;51.494;6.670;2023-08-12T13:06:31;22.90;99.90
19017;DHT22;9641;51.494;6.670;2023-08-12T13:08:59;22.80;99.90
19017;DHT22;9641;51.494;6.670;2023-08-12T13:11:26;22.70;99.90
19017;DHT22;9641;51.494;6.670;2023-08-12T13:13:53;22.60;99.90
19017;DHT22;9641;51.494;6.670;2023-08-12T13:16:30;22.40;99.90
19017;DHT22;9641;51.494;6.670;2023-08-12T13:19:00;22.30;99.90
19017;DHT22;9641;51.494;6.670;2023-08-12T13:21:28;22.10;99.90
19017;DHT22;9641;51.494;6.670;2023-08-12T13:23:55;22.00;99.90
19017;DHT22;9641;51.494;6.670;2023-08-12T13:26:22;22.00;99.90
19017;DHT22;9641;51.494;6.670;2023-08-12T13:28:53;21.90;99.90
19017;DHT22;9641;51.494;6.670;2023-08-12T13:31:23;21.90;99.90
19017;DHT22;9641;51.494;6.670;2023-08-12T13:33:52;21.90;99.90
19017;DHT22;9641;51.494;6.670;2023-08-12T13:36:19;22.00;99.90
19017;DHT22;9641;51.494;6.670;2023-08-12T13:39:07;22.30;99.90
19017;DHT22;9641;51.494;6.670;2023-08-12T13:41:34;22.80;99.90
19017;DHT22;9641;51.494;6.670;2023-08-12T13:44:02;23.90;99.90
19017;DHT22;9641;51.494;6.670;2023-08-12T13:46:29;24.30;99.90
19017;DHT22;9641;51.494;6.670;2023-08-12T13:48:57;24.50;99.90
19017;DHT22;9641;51.494;6.670;2023-08-12T13:51:24;24.70;99.90
19017;DHT22;9641;51.494;6.670;2023-08-12T13:53:52;24.90;99.90
19017;DHT22;9641;51.494;6.670;2023-08-12T13:56:19;25.30;99.90
19017;DHT22;9641;51.494;6.670;2023-08-12T13:58:46;25.60;99.90
19017;DHT22;9641;51.494;6.670;2023-08-12T14:01:13;26.00;99.90
19017;DHT22;9641;51.494;6.670;2023-08-12T14:03:40;26.30;99.90
19017;DHT22;9641;51.494;6.670;2023-08-12T14:06:09;26.30;99.90
19017;DHT22;9641;51.494;6.670;2023-08-12T14:08:39;26.70;31.10
19017;DHT22;9641;51.494;6.670;2023-08-12T14:11:06;27.00;9.40
19017;DHT22;9641;51.494;6.670;2023-08-12T14:13:34;27.50;1.00
19017;DHT22;9641;51.494;6.670;2023-08-12T14:16:04;27.60;1.00
19017;DHT22;9641;51.494;6.670;2023-08-12T14:18:35;27.60;1.00
19017;DHT22;9641;51.494;6.670;2023-08-12T14:21:03;27.80;99.90
19017;DHT22;9641;51.494;6.670;2023-08-12T14:23:33;28.10;99.90
19017;DHT22;9641;51.494;6.670;2023-08-12T14:26:00;28.60;1.00
19017;DHT22;9641;51.494;6.670;2023-08-12T14:28:27;28.80;1.00
19017;DHT22;9641;51.494;6.670;2023-08-12T14:30:53;29.00;99.90
19017;DHT22;9641;51.494;6.670;2023-08-12T14:33:20;28.90;1.00
19017;DHT22;9641;51.494;6.670;2023-08-12T14:35:50;27.80;1.00
19017;DHT22;9641;51.494;6.670;2023-08-12T14:38:18;26.90;1.00
19017;DHT22;9641;51.494;6.670;2023-08-12T14:40:49;26.50;1.00
19017;DHT22;9641;51.494;6.670;2023-08-12T14:43:16;26.80;1.00
19017;DHT22;9641;51.494;6.670;2023-08-12T14:45:44;27.50;99.90
19017;DHT22;9641;51.494;6.670;2023-08-12T14:48:11;28.10;1.00
19017;DHT22;9641;51.494;6.670;2023-08-12T14:50:40;28.50;99.90
19017;DHT22;9641;51.494;6.670;2023-08-12T14:53:07;28.70;99.90
19017;DHT22;9641;51.494;6.670;2023-08-12T14:55:34;28.60;99.90
19017;DHT22;9641;51.494;6.670;2023-08-12T14:58:03;28.60;1.00
19017;DHT22;9641;51.494;6.670;2023-08-12T15:00:30;28.70;1.00
19017;DHT22;9641;51.494;6.670;2023-08-12T15:02:59;28.70;1.00
19017;DHT22;9641;51.494;6.670;2023-08-12T15:05:26;28.60;1.00
19017;DHT22;9641;51.494;6.670;2023-08-12T15:07:53;28.50;1.00
19017;DHT22;9641;51.494;6.670;2023-08-12T15:10:20;28.90;1.00
19017;DHT22;9641;51.494;6.670;2023-08-12T15:12:47;29.30;1.00
19017;DHT22;9641;51.494;6.670;2023-08-12T15:15:15;29.80;1.00
19017;DHT22;9641;51.494;6.670;2023-08-12T15:17:42;29.90;1.00
19017;DHT22;9641;51.494;6.670;2023-08-12T15:20:10;29.90;1.00
19017;DHT22;9641;51.494;6.670;2023-08-12T15:22:37;29.90;1.00
19017;DHT22;9641;51.494;6.670;2023-08-12T15:25:05;29.20;1.00
19017;DHT22;9641;51.494;6.670;2023-08-12T15:27:32;28.90;1.00
19017;DHT22;9641;51.494;6.670;2023-08-12T15:29:59;29.30;1.00
19017;DHT22;9641;51.494;6.670;2023-08-12T15:32:27;29.40;1.00
19017;DHT22;9641;51.494;6.670;2023-08-12T15:34:54;29.40;1.00
19017;DHT22;9641;51.494;6.670;2023-08-12T15:37:21;29.50;1.00
19017;DHT22;9641;51.494;6.670;2023-08-12T15:39:51;29.60;1.00
19017;DHT22;9641;51.494;6.670;2023-08-12T15:42:19;29.20;1.00
19017;DHT22;9641;51.494;6.670;2023-08-12T15:44:46;28.30;1.00
19017;DHT22;9641;51.494;6.670;2023-08-12T15:47:13;28.40;1.00
19017;DHT22;9641;51.494;6.670;2023-08-12T15:49:41;29.30;1.00
19017;DHT22;9641;51.494;6.670;2023-08-12T15:52:09;30.00;1.00
19017;DHT22;9641;51.494;6.670;2023-08-12T15:54:36;30.70;1.00
19017;DHT22;9641;51.494;6.670;2023-08-12T15:57:13;31.10;1.00